Latest Weather Observations for Leigh Creek

IDS60801

Issued at 9:02 am CDT Thursday 5 March 2015 (issued every 30 minutes, with the page automatically refreshed every 10 minutes)

About weather observations | Map of weather stations | Latest weather observations for SA | Other Formats
Station Details ID: 017110 Name: LEIGH CREEK AIRPORT Lat: -30.60 Lon: 138.42 Height: 258.8 m
Data from the previous 72 hours. | See also: Recent months at Leigh Creek
Date/Time
CDT
Temp
°C
App
Temp
°C
Dew
Point
Rel
Hum
%
Delta-T
°C
Wind Press
QNH
hPa
Press
MSL
hPa
Rain
since 9 am
mm
Dir
 
Spd
km/h
Gust
km/h
Spd
kts
Gust
kts
05/09:00am 19.8 16.5 9.4 51 5.6 SE 17 28 9 15 1020.0 1018.8 0.0
05/08:30am 19.0 16.0 9.2 53 5.2 SSE 15 26 8 14 1020.2 1019.0 0.0
05/08:00am 18.9 15.5 9.1 53 5.2 SSE 17 28 9 15 1019.5 1018.3 0.0
05/07:30am 17.9 13.7 9.8 59 4.3 S 22 32 12 17 1019.4 1018.2 0.0
05/07:00am 17.8 12.9 9.9 60 4.2 S 26 33 14 18 1018.7 1017.4 0.0
05/06:30am 17.9 12.6 10.0 60 4.2 S 28 39 15 21 1018.4 1017.1 0.0
05/06:00am 18.0 13.5 10.1 60 4.2 S 24 39 13 21 1018.1 1016.8 0.0
05/05:30am 18.1 12.5 10.2 60 4.3 S 30 48 16 26 1017.9 1016.6 0.0
05/05:00am 18.2 11.6 10.1 59 4.4 S 35 54 19 29 1017.7 1016.4 0.0
05/04:56am 18.2 11.2 10.1 59 4.4 SSW 37 54 20 29 1017.7 1016.4 0.0
05/04:30am 18.2 13.3 10.1 59 4.4 S 26 35 14 19 1018.0 1016.7 0.0
05/04:00am 18.3 12.2 9.9 58 4.5 SSW 32 44 17 24 1017.7 1016.4 0.0
05/03:47am 18.6 12.0 9.9 57 4.7 SSW 35 54 19 29 1017.6 1016.3 0.0
05/03:30am 19.0 12.5 8.9 52 5.3 S 33 46 18 25 1017.6 1016.3 0.0
05/03:00am 19.4 12.9 8.1 48 5.9 S 32 44 17 24 1017.7 1016.4 0.0
05/02:30am 20.1 13.3 7.5 44 6.5 S 33 46 18 25 1017.6 1016.3 0.0
05/02:00am 20.4 13.2 5.2 37 7.6 SSW 32 41 17 22 1017.7 1016.4 0.0
05/01:30am 20.8 13.7 1.6 28 8.9 SSW 28 39 15 21 1017.6 1016.3 0.0
05/01:00am 21.6 13.9 0.2 24 9.7 SSW 30 35 16 19 1017.4 1016.1 0.0
05/12:30am 22.3 15.8 0.2 23 10.1 SSW 24 33 13 18 1017.3 1016.0 0.0
05/12:00am 23.4 17.7 0.5 22 10.6 SSW 20 26 11 14 1017.4 1016.1 0.0
 
Date/Time
CDT
Temp
°C
App
Temp
°C
Dew
Point
Rel
Hum
%
Delta-T
°C
Wind Press
QNH
hPa
Press
MSL
hPa
Rain
since 9 am
mm
Dir
 
Spd
km/h
Gust
km/h
Spd
kts
Gust
kts
04/11:30pm 24.3 18.3 -1.5 18 11.6 SSW 20 28 11 15 1017.5 1016.2 0.0
04/11:00pm 24.9 19.2 -3.5 15 12.4 S 17 28 9 15 1017.7 1016.4 0.0
04/10:30pm 24.9 18.7 -3.5 15 12.4 S 20 26 11 14 1017.7 1016.4 0.0
04/10:00pm 25.1 18.8 -0.9 18 11.9 S 22 33 12 18 1017.7 1016.4 0.0
04/09:30pm 25.6 18.6 4.1 25 10.8 S 30 41 16 22 1017.3 1016.0 0.0
04/09:00pm 26.2 19.3 4.6 25 11.0 SSW 30 41 16 22 1016.9 1015.6 0.0
04/08:30pm 26.6 19.7 4.4 24 11.3 SSW 30 41 16 22 1016.4 1015.2 0.0
04/08:00pm 26.8 20.0 5.1 25 11.2 SSW 30 37 16 20 1016.0 1014.8 0.0
04/07:30pm 27.4 20.6 6.8 27 11.0 SSW 32 43 17 23 1015.4 1014.1 0.0
04/07:00pm 28.4 22.4 8.7 29 10.9 SSW 30 39 16 21 1015.3 1014.0 0.0
04/06:30pm 28.7 23.1 8.9 29 11.0 SSW 28 37 15 20 1015.2 1013.9 0.0
04/06:00pm 30.0 23.7 9.0 27 11.8 SSW 32 39 17 21 1014.9 1013.6 0.0
04/05:30pm 31.5 25.8 9.7 26 12.5 SSW 30 41 16 22 1014.8 1013.5 0.0
04/05:00pm 31.9 26.3 10.0 26 12.6 SSW 30 39 16 21 1014.7 1013.4 0.0
04/04:30pm 32.3 27.3 10.9 27 12.5 SSW 28 35 15 19 1014.6 1013.3 0.0
04/04:00pm 33.1 29.6 11.0 26 13.0 SSW 20 30 11 16 1014.5 1013.2 0.0
04/03:30pm 32.7 27.8 10.1 25 13.1 SSW 26 41 14 22 1014.8 1013.5 0.0
04/03:00pm 33.0 27.9 9.1 23 13.6 SSW 26 39 14 21 1015.0 1013.7 0.0
04/02:30pm 34.0 30.2 9.9 23 14.0 SW 20 28 11 15 1015.1 1013.8 0.0
04/02:00pm 33.0 29.6 9.1 23 13.7 WSW 17 30 9 16 1015.4 1014.1 0.0
04/01:30pm 32.9 30.1 8.4 22 13.8 WNW 13 17 7 9 1015.8 1014.6 0.0
04/01:00pm 31.9 29.9 8.8 24 13.1 NE 9 20 5 11 1016.2 1015.0 0.0
04/12:30pm 31.6 29.0 9.2 25 12.7 SSW 13 20 7 11 1016.8 1015.5 0.0
04/12:00pm 30.4 28.4 8.7 26 12.2 SSW 9 17 5 9 1017.0 1015.7 0.0
04/11:30am 30.1 28.3 7.9 25 12.3 SE 7 13 4 7 1017.2 1015.9 0.0
04/11:00am 28.7 27.0 8.4 28 11.2 SSE 7 13 4 7 1017.3 1016.0 0.0
04/10:30am 26.8 24.4 8.7 32 10.0 S 11 17 6 9 1017.4 1016.1 0.0
04/10:00am 25.1 21.3 9.0 36 8.8 SSW 19 24 10 13 1017.5 1016.2 0.0
04/09:30am 23.6 19.8 9.2 40 7.9 SSW 19 24 10 13 1017.3 1016.0 0.0
04/09:00am 23.2 19.4 9.2 41 7.6 SSW 19 22 10 12 1016.9 1015.6 0.0
04/08:30am 22.9 19.6 9.7 43 7.2 SSW 17 20 9 11 1016.7 1015.4 0.0
04/08:00am 21.9 18.2 10.1 47 6.5 SSW 20 28 11 15 1016.4 1015.2 0.0
04/07:30am 21.4 17.4 10.3 49 6.1 SSW 22 28 12 15 1015.9 1014.7 0.0
04/07:00am 21.4 17.5 10.9 51 5.8 SSW 22 30 12 16 1015.5 1014.3 0.0
04/06:30am 21.6 17.8 11.0 51 5.9 SSW 22 28 12 15 1015.1 1013.8 0.0
04/06:00am 22.0 18.8 11.4 51 6.0 S 19 26 10 14 1014.9 1013.6 0.0
04/05:30am 22.2 18.3 12.2 53 5.7 SSW 24 30 13 16 1014.8 1013.5 0.0
04/05:00am 22.5 19.7 12.7 54 5.7 SSW 19 26 10 14 1014.6 1013.3 0.0
04/04:30am 22.8 19.8 12.7 53 5.8 SSW 20 24 11 13 1014.6 1013.3 0.0
04/04:00am 23.1 20.3 12.7 52 6.0 SSW 19 24 10 13 1014.6 1013.3 0.0
04/03:30am 23.6 20.6 12.6 50 6.4 SSW 20 26 11 14 1014.6 1013.3 0.0
04/03:00am 24.2 20.2 11.9 46 7.1 SSW 24 32 13 17 1014.6 1013.3 0.0
04/02:30am 24.8 20.2 11.0 42 7.8 SSW 26 33 14 18 1014.7 1013.4 0.0
04/02:00am 25.4 20.9 10.1 38 8.6 SSW 24 33 13 18 1014.8 1013.5 0.0
04/01:30am 25.9 20.9 9.7 36 9.0 SSW 26 35 14 19 1015.1 1013.8 0.0
04/01:00am 26.3 22.1 9.6 35 9.3 S 22 30 12 16 1015.3 1014.0 0.0
04/12:30am 26.6 22.0 9.5 34 9.5 SSW 24 32 13 17 1015.5 1014.3 0.0
04/12:00am 27.2 22.3 10.0 34 9.7 SSW 26 32 14 17 1015.6 1014.4 0.0
 
Date/Time
CDT
Temp
°C
App
Temp
°C
Dew
Point
Rel
Hum
%
Delta-T
°C
Wind Press
QNH
hPa
Press
MSL
hPa
Rain
since 9 am
mm
Dir
 
Spd
km/h
Gust
km/h
Spd
kts
Gust
kts
03/11:30pm 27.9 23.3 9.7 32 10.2 S 24 32 13 17 1015.8 1014.6 0.0
03/11:00pm 28.5 23.5 9.7 31 10.6 SSW 26 33 14 18 1015.7 1014.5 0.0
03/10:30pm 29.2 24.9 9.3 29 11.2 S 22 35 12 19 1015.6 1014.4 0.0
03/10:00pm 30.1 25.2 8.5 26 12.1 S 24 32 13 17 1015.3 1014.0 0.0
03/09:30pm 30.5 25.6 7.0 23 12.8 SSW 22 30 12 16 1015.1 1013.8 0.0
03/09:00pm 30.5 24.5 7.0 23 12.8 SSW 28 33 15 18 1014.7 1013.4 0.0
03/08:30pm 30.7 24.7 7.2 23 12.9 SSW 28 37 15 20 1014.5 1013.2 0.0
03/08:00pm 31.3 25.4 7.7 23 13.1 SSW 28 37 15 20 1014.1 1012.8 0.0
03/07:30pm 31.9 25.1 6.9 21 13.7 SSW 32 39 17 21 1013.8 1012.5 0.0
03/07:00pm 33.5 27.9 3.3 15 15.8 S 22 33 12 18 1013.6 1012.3 0.0
03/06:30pm 34.0 29.0 4.6 16 15.7 S 20 30 11 16 1013.2 1011.9 0.0
03/06:00pm 34.3 29.2 4.0 15 16.1 S 20 33 11 18 1013.2 1011.9 0.0
03/05:30pm 35.3 29.6 4.8 15 16.5 S 24 41 13 22 1013.2 1011.9 0.0
03/05:00pm 34.8 28.1 3.4 14 16.5 S 28 39 15 21 1013.1 1011.8 0.0
03/04:37pm 35.2 28.3 2.6 13 17.0 SSW 28 48 15 26 1013.0 1011.7 0.0
03/04:30pm 35.4 28.9 2.8 13 17.1 SSW 26 48 14 26 1012.9 1011.6 0.0
03/04:00pm 35.8 28.8 2.0 12 17.5 SSW 28 41 15 22 1013.0 1011.7 0.0
03/03:30pm 35.9 29.1 0.9 11 17.8 SSW 26 39 14 21 1013.2 1011.9 0.0
03/03:00pm 35.8 30.1 0.8 11 17.8 SSW 20 32 11 17 1013.6 1012.3 0.0
03/02:30pm 36.5 30.0 0.0 10 18.4 S 24 39 13 21 1013.4 1012.1 0.0
03/02:00pm 36.1 29.5 -0.3 10 18.2 SSW 24 32 13 17 1013.7 1012.4 0.0
03/01:30pm 35.6 30.9 0.6 11 17.7 SSW 15 28 8 15 1014.0 1012.7 0.0
03/01:00pm 34.6 30.0 -1.4 10 17.5 ESE 13 24 7 13 1014.4 1013.1 0.0
03/12:30pm 34.1 29.4 -1.8 10 17.3 SE 13 22 7 12 1014.8 1013.5 0.0
03/12:00pm 34.4 30.5 -1.6 10 17.4 E 9 24 5 13 1015.0 1013.7 0.0
03/11:30am 32.9 28.1 -2.7 10 16.8 ESE 13 20 7 11 1015.3 1014.0 0.0
03/11:00am 31.8 25.7 -2.3 11 16.0 ESE 20 28 11 15 1015.4 1014.1 0.0
03/10:30am 30.7 23.1 -1.9 12 15.3 ESE 28 35 15 19 1015.5 1014.3 0.0
03/10:00am 30.0 22.1 -1.4 13 14.8 ESE 30 35 16 19 1015.4 1014.1 0.0
03/09:30am 29.2 20.9 -2.0 13 14.5 ESE 32 37 17 20 1015.1 1013.8 0.0
03/09:00am 27.7 19.3 -2.2 14 13.7 ESE 32 41 17 22 1014.9 1013.6 0.0
03/08:30am 27.0 20.2 -1.8 15 13.2 ESE 24 32 13 17 1014.6 1013.3 0.0
03/08:00am 25.8 20.1 -1.1 17 12.4 ESE 19 28 10 15 1014.4 1013.1 0.0
03/07:30am 24.9 19.1 -1.8 17 12.0 ESE 19 28 10 15 1014.0 1012.7 0.0
03/07:00am 24.2 18.7 -2.4 17 11.8 ESE 17 24 9 13 1013.5 1012.2 0.0
03/06:30am 24.0 20.4 -1.8 18 11.5 SE 7 13 4 7 1013.1 1011.8 0.0
03/06:00am 23.2 19.8 -1.7 19 11.1 SSE 6 9 3 5 1012.9 1011.6 0.0
03/05:30am 23.0 19.5 -1.1 20 10.8 SE 7 11 4 6 1012.6 1011.3 0.0
03/05:00am 23.6 20.4 -0.6 20 11.0 SE 6 11 3 6 1012.3 1011.1 0.0
03/04:30am 22.1 20.0 -0.6 22 10.2 CALM 0 6 0 3 1012.3 1011.1 0.0
03/04:00am 22.1 19.3 -0.6 22 10.2 SE 4 7 2 4 1012.5 1011.2 0.0
03/03:30am 22.6 19.3 -0.2 22 10.4 S 7 9 4 5 1012.7 1011.4 0.0
03/03:00am 23.0 20.5 -1.1 20 10.8 SSE 2 7 1 4 1012.8 1011.5 0.0
03/02:30am 22.4 20.3 -1.0 21 10.5 CALM 0 0 0 0 1012.9 1011.6 0.0
03/02:00am 23.4 21.3 -0.8 20 11.0 CALM 0 0 0 0 1012.9 1011.6 0.0
03/01:30am 24.0 21.9 -1.0 19 11.3 CALM 0 0 0 0 1013.4 1012.1 0.0
03/01:00am 24.4 22.2 -1.4 18 11.7 CALM 0 0 0 0 1013.5 1012.2 0.0
03/12:30am 25.0 20.7 -1.7 17 12.1 SSW 11 13 6 7 1013.5 1012.2 0.0
03/12:00am 25.1 20.3 -2.5 16 12.3 SSW 13 19 7 10 1013.7 1012.4 0.0
 
Date/Time
CDT
Temp
°C
App
Temp
°C
Dew
Point
Rel
Hum
%
Delta-T
°C
Wind Press
QNH
hPa
Press
MSL
hPa
Rain
since 9 am
mm
Dir
 
Spd
km/h
Gust
km/h
Spd
kts
Gust
kts
02/11:30pm 25.6 22.2 -2.1 16 12.5 SE 6 7 3 4 1013.5 1012.2 0.0
02/11:00pm 27.5 23.5 -2.3 14 13.6 S 9 15 5 8 1013.4 1012.1 0.0
02/10:30pm 27.9 23.8 -3.0 13 13.9 S 9 13 5 7 1013.5 1012.2 0.0
02/10:00pm 29.1 23.8 -3.2 12 14.7 S 15 20 8 11 1013.1 1011.8 0.0
02/09:30pm 29.1 23.5 -3.2 12 14.7 S 17 20 9 11 1012.7 1011.4 0.0
02/09:00pm 29.7 24.1 -2.7 12 14.9 S 17 24 9 13 1012.1 1010.9 0.0
02/08:30pm 29.9 23.4 -2.6 12 15.0 SSW 22 30 12 16 1011.6 1010.3 0.0
02/08:00pm 30.5 24.9 -3.3 11 15.5 SSW 17 20 9 11 1011.3 1010.0 0.0
02/07:30pm 31.6 25.2 -5.1 9 16.5 SW 20 28 11 15 1011.0 1009.7 0.0
02/07:00pm 32.7 26.4 -5.8 8 17.2 SSW 19 24 10 13 1010.9 1009.6 0.0
02/06:30pm 32.8 26.5 -5.7 8 17.3 SSW 19 26 10 14 1010.6 1009.3 0.0
02/06:00pm 33.4 27.2 -5.3 8 17.6 SSW 19 30 10 16 1010.5 1009.2 0.0
02/05:30pm 33.7 27.9 -5.1 8 17.7 SW 17 24 9 13 1010.4 1009.1 0.0
02/05:00pm 34.0 27.8 -4.9 8 17.8 S 19 28 10 15 1010.4 1009.1 0.0
02/04:30pm 34.2 27.1 -4.7 8 17.9 SW 24 37 13 20 1010.4 1009.1 0.0
02/04:00pm 35.2 30.0 -2.4 9 18.1 S 15 33 8 18 1010.3 1009.0 0.0
02/03:30pm 33.9 28.1 -4.9 8 17.8 SW 17 24 9 13 1010.5 1009.2 0.0
02/03:00pm 33.6 28.3 -3.6 9 17.4 S 15 30 8 16 1010.8 1009.5 0.0
02/02:30pm 33.2 28.0 -2.5 10 16.9 SW 15 28 8 15 1011.3 1010.0 0.0
02/02:00pm 32.5 27.3 -3.0 10 16.6 SW 15 26 8 14 1011.7 1010.4 0.0
02/01:30pm 32.9 27.9 -1.4 11 16.5 SSW 15 26 8 14 1011.7 1010.4 0.0
02/01:00pm 31.6 27.7 -1.2 12 15.7 N 9 20 5 11 1012.1 1010.9 0.0
02/12:30pm 31.2 26.5 -1.5 12 15.5 S 13 20 7 11 1012.5 1011.2 0.0
02/12:00pm 31.6 27.3 0.9 14 15.2 SW 13 26 7 14 1013.0 1011.7 0.0
02/11:30am 29.9 26.1 -0.5 14 14.6 ENE 9 13 5 7 1013.4 1012.1 0.0
02/11:00am 29.9 25.0 -0.5 14 14.6 SE 15 22 8 12 1013.6 1012.3 0.0
02/10:30am 29.1 23.0 0.7 16 13.8 ESE 22 30 12 16 1013.7 1012.4 0.0
02/10:00am 27.7 21.1 2.0 19 12.7 E 26 32 14 17 1013.6 1012.3 0.0
02/09:30am 26.4 19.8 2.3 21 11.8 ESE 26 33 14 18 1013.7 1012.4 0.0

Other Formats:

Comma delimited format used in spreadsheet applications
http://www.bom.gov.au/fwo/IDS60801/IDS60801.94674.axf

JavaScript Object Notation format (JSON) in row-major order
http://www.bom.gov.au/fwo/IDS60801/IDS60801.94674.json